Time;durP1;ratioP1;P1;durP2;ratioP2;P2;SDS_P1;SDS_P2;PMS_P1;PMS_P2;Temp;Humidity;BMP_temperature;BMP_pressure;BME280_temperature;BME280_humidity;BME280_pressure;Samples;Min_cycle;Max_cycle;Signal;HPM_P1;HPM_P2
2022/08/08 00:01:57;;;;;;;3.17;1.50;;;;;;;16.74;59.77;100720.38;4985469;28;20453;-52
2022/08/08 00:04:54;;;;;;;0.70;0.40;;;;;;;16.80;60.80;100720.06;4982913;28;20829;-53
2022/08/08 00:07:47;;;;;;;0.60;0.30;;;;;;;16.39;61.45;100714.78;4981131;28;20445;-52
2022/08/08 00:10:21;;;;;;;0.60;0.40;;;;;;;16.14;62.64;100720.38;4981038;28;20446;-53
2022/08/08 00:13:32;;;;;;;0.50;0.30;;;;;;;16.36;62.18;100714.91;4984057;28;20482;-53
2022/08/08 00:16:25;;;;;;;5.87;0.50;;;;;;;16.50;61.63;100714.28;4985644;28;20457;-52
2022/08/08 00:19:09;;;;;;;0.50;0.30;;;;;;;16.29;62.19;100713.44;4980517;28;20460;-53
2022/08/08 00:21:40;;;;;;;0.70;0.57;;;;;;;16.24;62.91;100715.47;4980536;28;20474;-52
2022/08/08 00:24:32;;;;;;;0.57;0.40;;;;;;;16.15;62.95;100714.06;4986092;28;20585;-53
2022/08/08 00:27:03;;;;;;;0.53;0.30;;;;;;;16.07;63.20;100708.19;4986917;28;20459;-53
2022/08/08 00:29:49;;;;;;;0.60;0.40;;;;;;;16.26;62.79;100724.31;4986343;28;20465;-52
2022/08/08 00:32:26;;;;;;;1.00;0.80;;;;;;;16.14;63.53;100714.13;4985198;28;20886;-53
2022/08/08 00:35:30;;;;;;;0.60;0.40;;;;;;;16.08;64.92;100715.28;4987015;28;20839;-54
2022/08/08 00:38:18;;;;;;;0.70;0.60;;;;;;;15.87;65.15;100709.03;4987206;28;20449;-53
2022/08/08 00:41:17;;;;;;;0.50;0.40;;;;;;;15.55;66.26;100715.75;4986851;28;20449;-54
2022/08/08 00:44:00;;;;;;;4.57;0.97;;;;;;;15.80;65.74;100712.06;4983277;28;20493;-52
2022/08/08 00:47:14;;;;;;;0.50;0.30;;;;;;;15.98;65.50;100713.94;4988510;28;20457;-53
2022/08/08 00:50:27;;;;;;;0.70;0.40;;;;;;;15.90;65.39;100710.75;4987223;28;20527;-53
2022/08/08 00:52:56;;;;;;;0.70;0.50;;;;;;;16.02;65.44;100712.84;4985751;28;20485;-54
2022/08/08 00:55:55;;;;;;;0.50;0.30;;;;;;;15.80;66.38;100696.88;4985832;28;20457;-54
2022/08/08 00:59:04;;;;;;;0.50;0.33;;;;;;;15.57;66.85;100707.66;4983349;28;20525;-54
2022/08/08 01:01:39;;;;;;;0.53;0.33;;;;;;;15.32;67.89;100708.69;4983216;28;20489;-53
2022/08/08 01:04:19;;;;;;;0.50;0.30;;;;;;;15.33;67.10;100705.06;4979980;28;20493;-53
2022/08/08 01:07:10;;;;;;;2.60;0.60;;;;;;;15.27;67.22;100697.28;4980129;28;20451;-54
2022/08/08 01:09:55;;;;;;;0.50;0.40;;;;;;;15.35;67.15;100705.00;4982502;28;20449;-53
2022/08/08 01:12:54;;;;;;;0.50;0.40;;;;;;;15.46;67.00;100704.56;4980046;28;20449;-52
2022/08/08 01:15:27;;;;;;;0.60;0.30;;;;;;;15.54;66.38;100700.63;4980826;28;20453;-53
2022/08/08 01:18:31;;;;;;;0.60;0.50;;;;;;;15.43;66.57;100693.97;4980699;28;20454;-53
2022/08/08 01:21:29;;;;;;;0.60;0.30;;;;;;;15.27;66.52;100696.44;4985070;28;20460;-53
2022/08/08 01:24:19;;;;;;;0.50;0.30;;;;;;;15.21;67.22;100702.00;4983208;28;20516;-54
2022/08/08 01:27:09;;;;;;;0.50;0.30;;;;;;;15.32;66.39;100699.78;4986524;28;20454;-53
2022/08/08 01:30:06;;;;;;;1.43;0.50;;;;;;;15.11;66.78;100701.53;4986358;28;20532;-53
2022/08/08 01:33:06;;;;;;;0.87;0.50;;;;;;;15.33;66.15;100702.38;4984656;28;20457;-53
2022/08/08 01:36:30;;;;;;;0.50;0.30;;;;;;;15.12;66.61;100705.97;4975025;28;20466;-53
2022/08/08 01:39:28;;;;;;;0.50;0.33;;;;;;;14.89;66.90;100701.53;4983847;28;20449;-53
2022/08/08 01:42:18;;;;;;;0.40;0.30;;;;;;;15.05;66.94;100699.97;4984511;28;20549;-53
2022/08/08 01:45:22;;;;;;;0.70;0.33;;;;;;;14.89;67.29;100703.31;4990226;28;20493;-53
2022/08/08 01:48:16;;;;;;;0.70;0.50;;;;;;;14.95;67.67;100703.97;4990012;28;21259;-53
2022/08/08 01:51:11;;;;;;;0.60;0.37;;;;;;;14.82;68.26;100708.94;5005972;28;20531;-53
2022/08/08 01:54:11;;;;;;;1.37;0.40;;;;;;;14.78;68.17;100712.66;4983598;28;20466;-53
2022/08/08 01:57:19;;;;;;;1.83;0.60;;;;;;;14.69;68.67;100712.16;5004132;28;20504;-53
2022/08/08 02:00:15;;;;;;;0.60;0.40;;;;;;;14.75;68.18;100710.09;4985097;28;20873;-53
2022/08/08 02:02:56;;;;;;;0.50;0.33;;;;;;;14.52;69.60;100710.97;4989362;28;20480;-53
2022/08/08 02:05:30;;;;;;;0.80;0.50;;;;;;;14.63;68.89;100707.88;4989950;28;20528;-53
2022/08/08 02:08:22;;;;;;;0.50;0.30;;;;;;;14.48;70.04;100714.69;4988406;28;20446;-53
2022/08/08 02:11:14;;;;;;;0.80;0.33;;;;;;;14.57;68.68;100718.84;4983679;28;20477;-53
2022/08/08 02:13:58;;;;;;;0.50;0.30;;;;;;;14.43;69.13;100716.66;4983016;28;20469;-53
2022/08/08 02:16:48;;;;;;;0.70;0.30;;;;;;;14.42;69.20;100730.97;4996252;28;20472;-53
2022/08/08 02:19:30;;;;;;;1.03;0.47;;;;;;;14.32;69.88;100732.22;4988478;28;20955;-53
2022/08/08 02:22:35;;;;;;;0.50;0.30;;;;;;;14.14;70.16;100732.91;4989648;28;20454;-52
2022/08/08 02:25:47;;;;;;;0.50;0.30;;;;;;;14.07;70.69;100731.38;4989280;28;20520;-53
2022/08/08 02:28:56;;;;;;;2.10;0.40;;;;;;;14.40;70.52;100730.16;4989470;28;20468;-53
2022/08/08 02:32:06;;;;;;;17.23;0.60;;;;;;;14.47;71.36;100729.00;4988005;28;20452;-53
2022/08/08 02:35:01;;;;;;;0.40;0.27;;;;;;;14.26;70.95;100732.47;4989249;28;20472;-53
2022/08/08 02:38:14;;;;;;;0.60;0.40;;;;;;;14.07;71.67;100728.69;4988605;28;20445;-53
2022/08/08 02:41:16;;;;;;;10.93;0.40;;;;;;;14.10;70.76;100724.09;4984093;28;20799;-53
2022/08/08 02:44:41;;;;;;;0.50;0.30;;;;;;;14.12;71.44;100721.41;4987758;28;21033;-54
2022/08/08 02:48:08;;;;;;;6.40;1.00;;;;;;;14.02;71.52;100719.97;4984909;28;21109;-53
2022/08/08 02:50:35;;;;;;;5.23;0.57;;;;;;;13.96;71.35;100722.84;5002737;28;20472;-53
2022/08/08 02:53:11;;;;;;;0.57;0.30;;;;;;;14.07;72.31;100720.66;4988065;28;20459;-52
2022/08/08 02:55:49;;;;;;;0.50;0.30;;;;;;;13.87;72.46;100732.94;4988994;28;20813;-53
2022/08/08 02:58:46;;;;;;;0.50;0.30;;;;;;;13.72;73.04;100730.81;4995401;28;20824;-52
2022/08/08 03:01:13;;;;;;;0.40;0.30;;;;;;;13.81;72.61;100725.13;4989163;28;20451;-53
2022/08/08 03:04:02;;;;;;;2.53;0.30;;;;;;;13.73;73.52;100726.34;4988510;28;20508;-53
2022/08/08 03:07:26;;;;;;;0.50;0.30;;;;;;;13.65;73.16;100731.94;4983409;28;20462;-53
2022/08/08 03:10:21;;;;;;;0.70;0.40;;;;;;;13.57;74.10;100734.00;4988972;28;20500;-53
2022/08/08 03:13:37;;;;;;;0.50;0.40;;;;;;;13.82;73.52;100724.22;4985707;28;20472;-52
2022/08/08 03:16:41;;;;;;;0.90;0.60;;;;;;;13.75;74.27;100732.50;4995154;28;20450;-53
2022/08/08 03:19:40;;;;;;;1.10;0.50;;;;;;;13.78;74.13;100730.59;4981777;28;20868;-53
2022/08/08 03:22:17;;;;;;;0.70;0.40;;;;;;;13.66;73.65;100736.34;4980783;28;20521;-53
2022/08/08 03:25:05;;;;;;;0.40;0.27;;;;;;;13.80;73.70;100731.41;4981479;28;20504;-53
2022/08/08 03:28:03;;;;;;;1.23;0.33;;;;;;;13.54;73.87;100736.75;4985023;28;20645;-53
2022/08/08 03:30:30;;;;;;;0.50;0.40;;;;;;;13.44;74.51;100738.88;4982105;28;20532;-53
2022/08/08 03:33:18;;;;;;;0.50;0.30;;;;;;;13.56;74.22;100735.78;4981564;28;20477;-53
2022/08/08 03:36:05;;;;;;;1.07;0.60;;;;;;;13.42;74.67;100734.50;4982738;28;20832;-53
2022/08/08 03:38:36;;;;;;;6.27;0.87;;;;;;;13.27;75.62;100736.75;4988359;28;20461;-53
2022/08/08 03:41:31;;;;;;;0.60;0.33;;;;;;;13.27;75.44;100743.88;4988347;28;20442;-53
2022/08/08 03:44:17;;;;;;;0.60;0.40;;;;;;;13.08;75.38;100740.03;4987697;28;20493;-53
2022/08/08 03:46:50;;;;;;;0.50;0.30;;;;;;;12.92;77.08;100737.84;4990068;28;20467;-53
2022/08/08 03:49:23;;;;;;;0.60;0.37;;;;;;;13.08;76.87;100740.03;4984376;28;20465;-53
2022/08/08 03:52:09;;;;;;;0.60;0.43;;;;;;;12.97;76.99;100740.38;5001847;28;20446;-53
2022/08/08 03:54:42;;;;;;;0.50;0.40;;;;;;;13.02;76.63;100743.78;4981289;28;20845;-53
2022/08/08 03:57:29;;;;;;;1.17;0.60;;;;;;;12.89;76.95;100745.09;5003481;28;20466;-53
2022/08/08 04:00:19;;;;;;;0.50;0.30;;;;;;;12.94;77.65;100746.69;4982246;28;20461;-53
2022/08/08 04:03:06;;;;;;;0.50;0.40;;;;;;;13.02;77.01;100746.47;4988014;28;20480;-53
2022/08/08 04:05:37;;;;;;;0.60;0.40;;;;;;;12.95;77.03;100751.09;4987489;28;20450;-54
2022/08/08 04:08:21;;;;;;;0.50;0.30;;;;;;;12.79;77.65;100747.16;4985198;28;20504;-52
2022/08/08 04:11:02;;;;;;;0.83;0.50;;;;;;;13.00;77.67;100753.59;4987721;28;20482;-53
2022/08/08 04:13:42;;;;;;;1.03;0.40;;;;;;;12.72;79.42;100751.78;4987334;28;20472;-52
2022/08/08 04:16:28;;;;;;;0.50;0.30;;;;;;;12.82;78.37;100754.19;4987633;28;20458;-53
2022/08/08 04:19:07;;;;;;;3.40;0.40;;;;;;;12.54;80.57;100751.47;4980553;28;20446;-52
2022/08/08 04:21:50;;;;;;;0.53;0.40;;;;;;;12.69;79.90;100762.56;4980720;28;20458;-53
2022/08/08 04:24:17;;;;;;;0.50;0.40;;;;;;;12.86;78.49;100761.16;4985156;28;20494;-53
2022/08/08 04:26:54;;;;;;;0.50;0.30;;;;;;;12.87;78.53;100766.44;4986013;28;20565;-53
2022/08/08 04:29:23;;;;;;;0.77;0.40;;;;;;;12.82;79.06;100770.19;4984471;28;20866;-53
2022/08/08 04:31:50;;;;;;;0.57;0.47;;;;;;;12.63;79.79;100775.22;4980483;28;20521;-52
2022/08/08 04:34:26;;;;;;;1.20;0.60;;;;;;;13.52;76.77;100776.00;4981597;28;20493;-52
2022/08/08 04:37:02;;;;;;;1.90;0.47;;;;;;;13.24;77.05;100774.22;4980746;28;20481;-53
2022/08/08 04:39:29;;;;;;;0.50;0.40;;;;;;;13.10;78.37;100781.75;4980527;28;20458;-52
2022/08/08 04:42:16;;;;;;;2.20;0.63;;;;;;;13.09;78.28;100782.69;4984148;28;20457;-52
2022/08/08 04:44:43;;;;;;;0.50;0.40;;;;;;;13.36;77.55;100788.13;4987115;28;20498;-53
2022/08/08 04:47:13;;;;;;;1.17;0.50;;;;;;;13.16;78.73;100783.38;4991743;28;20998;-52
2022/08/08 04:49:41;;;;;;;1.00;0.77;;;;;;;13.37;77.79;100785.41;4986811;28;20452;-53
2022/08/08 04:52:27;;;;;;;0.47;0.30;;;;;;;13.52;77.21;100795.56;4996875;28;20464;-53
2022/08/08 04:54:59;;;;;;;0.60;0.50;;;;;;;14.33;75.03;100797.28;4982645;28;20508;-53
2022/08/08 04:57:27;;;;;;;0.60;0.40;;;;;;;15.39;70.18;100798.59;5001986;28;20460;-53
2022/08/08 04:59:54;;;;;;;0.60;0.47;;;;;;;16.37;66.59;100801.66;4984258;28;20454;-53
2022/08/08 05:02:23;;;;;;;1.07;0.60;;;;;;;17.19;63.49;100805.94;4986890;28;20538;-53
2022/08/08 05:04:57;;;;;;;9.20;0.70;;;;;;;17.74;60.86;100800.59;4983484;28;20493;-53
2022/08/08 05:07:26;;;;;;;0.60;0.50;;;;;;;17.75;60.83;100803.19;4980131;28;20460;-53
2022/08/08 05:10:07;;;;;;;0.50;0.30;;;;;;;18.35;58.82;100792.91;4980411;28;20454;-53
2022/08/08 05:12:38;;;;;;;0.60;0.40;;;;;;;18.54;57.75;100806.28;4979266;28;20450;-53
2022/08/08 05:15:25;;;;;;;0.80;0.80;;;;;;;18.70;57.19;100797.41;4981173;28;20459;-53
2022/08/08 05:18:11;;;;;;;0.90;0.63;;;;;;;18.82;56.69;100802.16;4980221;28;20458;-53
2022/08/08 05:20:38;;;;;;;1.33;0.90;;;;;;;19.14;56.04;100803.06;4986561;28;20800;-53
2022/08/08 05:23:15;;;;;;;1.00;0.40;;;;;;;19.22;55.68;100806.19;4986532;28;20481;-53
2022/08/08 05:25:42;;;;;;;0.60;0.33;;;;;;;19.12;55.47;100808.53;4980806;28;20500;-53
2022/08/08 05:28:12;;;;;;;6.03;0.93;;;;;;;19.24;55.67;100796.19;4979906;28;20454;-53
2022/08/08 05:30:40;;;;;;;1.63;0.50;;;;;;;19.46;55.13;100812.00;4984291;28;20461;-53
2022/08/08 05:33:13;;;;;;;4.93;0.97;;;;;;;19.51;54.85;100807.25;4986256;28;20450;-53
2022/08/08 05:35:43;;;;;;;1.23;0.70;;;;;;;19.80;54.08;100814.53;4973353;28;20454;-53
2022/08/08 05:38:14;;;;;;;0.60;0.50;;;;;;;19.90;53.20;100811.31;4986300;28;20457;-53
2022/08/08 05:40:57;;;;;;;0.70;0.50;;;;;;;19.93;53.77;100808.44;4986410;28;20455;-55
2022/08/08 05:43:25;;;;;;;0.70;0.40;;;;;;;20.27;53.00;100813.53;4986271;28;20493;-52
2022/08/08 05:46:13;;;;;;;0.70;0.63;;;;;;;20.49;52.64;100825.78;4988987;28;20458;-52
2022/08/08 05:48:42;;;;;;;8.43;0.83;;;;;;;20.82;51.86;100822.81;4982767;28;20914;-52
2022/08/08 05:51:16;;;;;;;4.13;0.70;;;;;;;20.95;50.74;100823.78;5004044;28;20950;-53
2022/08/08 05:53:44;;;;;;;0.60;0.40;;;;;;;20.76;51.41;100826.78;4981138;28;21003;-53
2022/08/08 05:56:37;;;;;;;1.23;0.60;;;;;;;20.88;51.40;100831.44;4987065;28;20461;-53
2022/08/08 05:59:20;;;;;;;0.70;0.50;;;;;;;20.80;51.93;100825.63;4992442;28;20470;-53
2022/08/08 06:05:10;;;;;;;27.30;0.80;;;;;;;21.29;50.44;100828.81;4984647;28;20492;-53
2022/08/08 06:07:57;;;;;;;0.60;0.40;;;;;;;21.40;50.57;100827.28;4973337;28;20847;-53
2022/08/08 06:10:38;;;;;;;1.83;0.60;;;;;;;21.58;50.17;100828.75;4986209;28;20482;-53
2022/08/08 06:13:07;;;;;;;12.80;0.80;;;;;;;21.97;49.56;100827.94;4983409;28;20450;-52
2022/08/08 06:15:37;;;;;;;5.40;1.00;;;;;;;21.73;49.53;100838.56;4980814;28;20484;-53
2022/08/08 06:18:19;;;;;;;0.90;0.60;;;;;;;22.06;49.20;100834.59;4979321;28;20932;-53
2022/08/08 06:20:51;;;;;;;1.30;0.73;;;;;;;22.18;49.17;100837.34;4985652;28;20450;-53
2022/08/08 06:23:24;;;;;;;1.20;0.80;;;;;;;22.14;49.54;100825.00;4986626;28;20496;-53
2022/08/08 06:26:12;;;;;;;1.77;0.50;;;;;;;22.25;49.21;100835.09;4983901;28;20951;-53
2022/08/08 06:29:08;;;;;;;0.83;0.67;;;;;;;21.80;50.80;100839.06;4983608;28;20824;-53
2022/08/08 06:32:00;;;;;;;0.80;0.63;;;;;;;21.46;52.63;100838.53;4983185;28;20460;-53
2022/08/08 06:34:45;;;;;;;1.00;0.67;;;;;;;21.85;51.42;100839.59;4982514;28;20463;-53
2022/08/08 06:37:26;;;;;;;0.60;0.40;;;;;;;22.53;51.00;100847.63;4986288;28;20907;-53
2022/08/08 06:39:56;;;;;;;1.10;0.73;;;;;;;22.16;50.58;100839.28;4989297;28;20453;-53
2022/08/08 06:42:31;;;;;;;1.17;0.63;;;;;;;22.10;51.36;100846.97;4987368;28;20453;-53
2022/08/08 06:44:57;;;;;;;1.33;0.43;;;;;;;21.59;53.49;100855.72;4982356;28;20493;-53
2022/08/08 06:47:24;;;;;;;3.33;0.70;;;;;;;21.77;53.77;100852.75;4995533;28;20458;-53
2022/08/08 06:49:59;;;;;;;5.80;0.60;;;;;;;21.86;52.70;100849.47;4991010;28;20448;-53
2022/08/08 06:52:30;;;;;;;0.50;0.30;;;;;;;22.08;51.43;100847.09;4998851;28;20450;-53
2022/08/08 06:55:00;;;;;;;0.70;0.53;;;;;;;22.30;51.10;100854.59;4984450;28;20556;-53
2022/08/08 06:57:26;;;;;;;2.63;0.60;;;;;;;23.11;47.99;100848.94;5004517;28;21021;-53
2022/08/08 06:59:55;;;;;;;0.80;0.70;;;;;;;23.75;46.58;100846.97;4986544;28;20476;-53
2022/08/08 07:02:44;;;;;;;0.70;0.60;;;;;;;23.54;46.68;100852.09;4989260;28;20494;-53
2022/08/08 07:05:18;;;;;;;0.50;0.40;;;;;;;23.77;46.28;100858.59;4988425;28;20535;-53
2022/08/08 07:07:52;;;;;;;1.43;0.73;;;;;;;24.20;44.79;100860.78;4988234;28;20446;-53
2022/08/08 07:10:23;;;;;;;0.67;0.50;;;;;;;23.80;44.90;100852.06;4988880;28;20456;-54
2022/08/08 07:12:57;;;;;;;1.43;0.70;;;;;;;24.12;45.39;100863.19;4984556;28;20464;-54
2022/08/08 07:15:41;;;;;;;1.20;0.50;;;;;;;23.88;45.95;100863.22;4983434;28;20450;-54
2022/08/08 07:18:42;;;;;;;5.33;0.77;;;;;;;23.58;46.06;100860.94;4982106;28;20450;-54
2022/08/08 07:21:15;;;;;;;0.80;0.30;;;;;;;23.84;45.72;100862.56;4984656;28;20948;-54
2022/08/08 07:24:09;;;;;;;0.70;0.40;;;;;;;23.69;45.89;100858.28;4988473;28;20463;-54
2022/08/08 07:26:39;;;;;;;0.60;0.40;;;;;;;23.60;46.13;100859.00;4988322;28;20450;-54
2022/08/08 07:29:06;;;;;;;2.20;1.00;;;;;;;23.89;46.79;100857.69;4984737;28;20967;-54
2022/08/08 07:31:45;;;;;;;0.50;0.30;;;;;;;23.93;45.43;100855.59;4981668;28;20931;-54
2022/08/08 07:34:17;;;;;;;0.60;0.30;;;;;;;23.99;46.21;100860.56;4983480;28;20470;-54
2022/08/08 07:36:58;;;;;;;0.93;0.53;;;;;;;24.00;45.57;100853.28;4975453;28;20928;-54
2022/08/08 07:39:26;;;;;;;0.60;0.50;;;;;;;24.15;45.46;100860.28;4987846;28;20453;-54
2022/08/08 07:42:00;;;;;;;1.70;0.50;;;;;;;24.12;42.64;100855.06;4983575;28;20472;-54
2022/08/08 07:44:31;;;;;;;1.33;0.40;;;;;;;24.35;41.51;100853.34;4981355;28;20533;-54
2022/08/08 07:47:03;;;;;;;0.97;0.60;;;;;;;24.55;38.86;100863.53;4994711;28;20446;-54
2022/08/08 07:49:31;;;;;;;0.60;0.50;;;;;;;24.66;38.61;100858.13;4985120;28;20499;-54
2022/08/08 07:51:59;;;;;;;0.60;0.50;;;;;;;24.58;38.09;100863.31;5003620;28;20456;-55
2022/08/08 07:54:38;;;;;;;1.33;0.60;;;;;;;24.78;37.64;100859.00;4981455;28;20473;-54
2022/08/08 07:57:22;;;;;;;0.50;0.30;;;;;;;24.59;38.26;100858.72;5004839;28;20984;-54
2022/08/08 08:00:10;;;;;;;0.60;0.40;;;;;;;25.14;38.01;100873.44;4983284;28;20469;-55
2022/08/08 08:02:54;;;;;;;1.03;0.60;;;;;;;25.33;37.38;100862.78;4981064;28;20951;-55
2022/08/08 08:05:26;;;;;;;5.40;0.50;;;;;;;25.01;37.75;100862.66;4979626;28;21015;-54
2022/08/08 08:08:05;;;;;;;1.57;0.50;;;;;;;24.98;36.90;100871.91;4985327;28;20497;-54
2022/08/08 08:10:34;;;;;;;1.10;0.50;;;;;;;24.92;36.76;100866.94;4987843;28;20450;-55
2022/08/08 08:13:24;;;;;;;0.80;0.60;;;;;;;25.31;37.31;100868.34;4984784;28;20457;-55
2022/08/08 08:16:17;;;;;;;0.60;0.47;;;;;;;25.15;35.97;100875.16;4994102;28;20457;-55
2022/08/08 08:18:47;;;;;;;3.03;0.77;;;;;;;25.28;35.75;100867.75;4980590;28;20448;-55
2022/08/08 08:21:28;;;;;;;1.13;0.60;;;;;;;25.49;36.08;100871.44;4982046;28;20877;-55
2022/08/08 08:24:15;;;;;;;10.23;0.97;;;;;;;25.50;35.84;100875.06;4983183;28;20511;-55
2022/08/08 08:26:44;;;;;;;0.70;0.50;;;;;;;25.62;35.22;100882.19;4980829;28;20508;-54
2022/08/08 08:29:18;;;;;;;0.60;0.40;;;;;;;25.63;35.16;100875.75;4983566;28;20450;-55
2022/08/08 08:31:45;;;;;;;1.80;0.53;;;;;;;25.64;35.47;100881.09;4987368;28;20549;-55
2022/08/08 08:34:24;;;;;;;0.60;0.50;;;;;;;25.65;35.50;100879.25;4986385;28;20504;-55
2022/08/08 08:36:58;;;;;;;1.17;0.50;;;;;;;25.85;35.47;100872.16;4981025;28;20545;-55
2022/08/08 08:39:24;;;;;;;0.70;0.50;;;;;;;25.83;35.33;100883.19;4980330;28;20454;-55
2022/08/08 08:42:13;;;;;;;0.50;0.33;;;;;;;26.04;35.74;100874.19;4983997;28;20465;-54
2022/08/08 08:44:45;;;;;;;0.73;0.63;;;;;;;26.20;35.17;100878.25;4986954;28;20529;-54
2022/08/08 08:47:13;;;;;;;0.50;0.33;;;;;;;26.54;34.39;100869.94;4993005;28;20453;-55
2022/08/08 08:49:43;;;;;;;1.63;0.30;;;;;;;26.29;34.88;100876.59;4985525;28;20440;-55
2022/08/08 08:52:16;;;;;;;0.60;0.40;;;;;;;26.30;34.96;100872.84;5000101;28;20457;-54
2022/08/08 08:54:47;;;;;;;1.43;0.50;;;;;;;26.40;34.50;100878.44;4981258;28;20473;-55
2022/08/08 08:57:22;;;;;;;0.50;0.40;;;;;;;26.64;34.34;100865.41;5002050;28;20456;-54
2022/08/08 08:59:51;;;;;;;0.60;0.50;;;;;;;26.49;34.20;100870.34;4984967;28;20832;-54
2022/08/08 09:02:34;;;;;;;9.13;0.63;;;;;;;26.60;34.70;100876.75;4986802;28;20958;-55
2022/08/08 09:05:06;;;;;;;0.80;0.40;;;;;;;26.43;34.47;100870.84;4985465;28;21003;-55
2022/08/08 09:07:41;;;;;;;0.70;0.40;;;;;;;26.41;34.57;100880.16;4980793;28;20461;-54
2022/08/08 09:10:31;;;;;;;0.60;0.40;;;;;;;26.47;34.31;100866.03;4983132;28;20990;-55
2022/08/08 09:12:59;;;;;;;2.60;0.97;;;;;;;26.43;34.42;100879.03;4983132;28;20448;-54
2022/08/08 09:15:27;;;;;;;2.80;0.80;;;;;;;26.71;34.09;100877.50;4991019;28;20450;-55
2022/08/08 09:18:08;;;;;;;0.70;0.50;;;;;;;27.08;33.82;100877.94;4981709;28;20453;-55
2022/08/08 09:20:36;;;;;;;15.80;0.70;;;;;;;26.83;34.23;100876.44;4980398;28;20524;-55
2022/08/08 09:23:24;;;;;;;0.90;0.70;;;;;;;26.99;33.25;100873.22;4979678;28;20477;-55
2022/08/08 09:26:39;;;;;;;2.40;1.57;;;;;;;27.24;33.25;100865.63;4981545;28;21019;-55
2022/08/08 09:29:20;;;;;;;0.50;0.30;;;;;;;27.39;32.74;100859.66;4983933;28;20453;-55
2022/08/08 09:32:01;;;;;;;0.60;0.50;;;;;;;27.03;32.74;100868.44;4979938;28;20449;-55
2022/08/08 09:34:31;;;;;;;0.80;0.70;;;;;;;27.09;32.18;100863.28;4979977;28;20478;-55
2022/08/08 09:37:07;;;;;;;0.70;0.50;;;;;;;26.94;32.66;100867.31;4984641;28;20474;-55
2022/08/08 09:39:53;;;;;;;0.60;0.50;;;;;;;27.11;31.93;100866.72;4986536;28;20446;-55
2022/08/08 09:42:24;;;;;;;5.80;0.50;;;;;;;26.97;32.53;100861.59;4985939;28;20465;-55
2022/08/08 09:45:08;;;;;;;0.60;0.40;;;;;;;26.85;32.64;100865.41;4986454;28;20502;-55
2022/08/08 09:48:00;;;;;;;1.07;0.70;;;;;;;27.39;32.39;100861.53;4987907;28;20458;-55
2022/08/08 09:50:49;;;;;;;0.60;0.50;;;;;;;27.15;32.57;100854.56;5001532;28;20441;-55
2022/08/08 09:53:20;;;;;;;0.60;0.40;;;;;;;27.52;31.93;100869.47;4984721;28;20466;-55
2022/08/08 09:56:10;;;;;;;2.30;0.60;;;;;;;27.64;31.58;100861.06;4991696;28;20461;-55
2022/08/08 09:59:00;;;;;;;1.93;0.87;;;;;;;27.44;32.29;100860.13;4999230;28;20450;-55
2022/08/08 10:01:36;;;;;;;0.70;0.63;;;;;;;27.19;31.46;100852.41;4984217;28;20450;-55
2022/08/08 10:04:25;;;;;;;0.60;0.37;;;;;;;27.73;31.82;100862.97;4989162;28;20466;-55
2022/08/08 10:07:12;;;;;;;1.53;0.50;;;;;;;27.61;31.90;100858.59;4989968;28;20449;-55
2022/08/08 10:09:42;;;;;;;0.60;0.40;;;;;;;27.72;31.21;100857.66;4986286;28;20485;-54
2022/08/08 10:12:38;;;;;;;0.93;0.50;;;;;;;27.74;30.50;100858.38;4983189;28;20449;-54
2022/08/08 10:15:24;;;;;;;0.57;0.37;;;;;;;27.76;30.61;100858.22;4984219;28;20557;-55
2022/08/08 10:17:51;;;;;;;0.77;0.53;;;;;;;27.91;30.70;100860.41;4986992;28;20476;-55
2022/08/08 10:20:47;;;;;;;0.70;0.50;;;;;;;27.28;31.40;100851.59;4989580;28;21027;-55
2022/08/08 10:23:48;;;;;;;0.90;0.60;;;;;;;27.94;31.04;100859.25;4989536;28;20569;-55
2022/08/08 10:26:24;;;;;;;0.60;0.50;;;;;;;27.78;30.72;100850.75;4989662;28;20497;-55
2022/08/08 10:29:12;;;;;;;0.60;0.43;;;;;;;27.82;30.21;100842.13;4986555;28;20446;-55
2022/08/08 10:34:50;;;;;;;5.40;0.77;;;;;;;27.66;31.19;100848.13;4982777;28;20485;-55
2022/08/08 10:37:32;;;;;;;3.50;1.60;;;;;;;27.47;31.19;100850.78;4985101;28;20489;-55
2022/08/08 10:40:22;;;;;;;0.50;0.37;;;;;;;27.98;31.14;100842.47;4989163;28;20473;-55
2022/08/08 10:42:59;;;;;;;0.80;0.47;;;;;;;28.00;30.79;100837.69;4989537;28;20446;-55
2022/08/08 10:45:28;;;;;;;0.63;0.40;;;;;;;28.07;30.82;100828.91;4986507;28;20489;-55
2022/08/08 10:48:08;;;;;;;0.53;0.37;;;;;;;28.43;29.88;100835.56;4990350;28;20496;-55
2022/08/08 10:50:36;;;;;;;1.83;0.50;;;;;;;28.27;29.70;100836.16;5000923;28;20440;-55
2022/08/08 10:53:15;;;;;;;0.67;0.40;;;;;;;28.53;29.48;100826.34;4990361;28;20465;-55
2022/08/08 10:55:41;;;;;;;1.30;0.57;;;;;;;29.06;29.76;100830.44;4989092;28;20445;-55
2022/08/08 10:58:12;;;;;;;13.97;0.90;;;;;;;29.10;29.74;100832.69;4984539;28;20457;-55
2022/08/08 11:00:43;;;;;;;0.70;0.43;;;;;;;28.84;30.23;100823.41;4982399;28;20489;-55
2022/08/08 11:03:27;;;;;;;2.20;0.60;;;;;;;28.63;30.06;100831.78;4984038;28;20466;-55
2022/08/08 11:06:14;;;;;;;0.83;0.77;;;;;;;28.53;30.14;100829.09;4983201;28;20488;-55
2022/08/08 11:08:41;;;;;;;1.10;0.60;;;;;;;28.86;29.49;100830.44;4981998;28;20900;-55
2022/08/08 11:11:19;;;;;;;1.53;0.60;;;;;;;28.54;29.59;100825.34;4986379;28;20454;-55
2022/08/08 11:14:11;;;;;;;0.93;0.50;;;;;;;28.82;30.07;100826.28;4987391;28;20976;-55
2022/08/08 11:16:44;;;;;;;0.50;0.40;;;;;;;28.94;30.18;100815.19;4990354;28;20453;-55
2022/08/08 11:19:12;;;;;;;5.70;0.73;;;;;;;28.94;29.47;100820.66;4982764;28;20819;-55
2022/08/08 11:21:46;;;;;;;0.70;0.43;;;;;;;29.07;29.27;100822.06;4981984;28;20549;-55
2022/08/08 11:24:26;;;;;;;0.63;0.60;;;;;;;28.82;29.52;100815.34;4985340;28;20482;-55
2022/08/08 11:26:58;;;;;;;0.60;0.30;;;;;;;28.97;29.51;100817.63;4988625;28;20497;-55
2022/08/08 11:29:27;;;;;;;1.67;0.43;;;;;;;29.40;29.30;100803.28;4986545;28;20994;-55
2022/08/08 11:32:16;;;;;;;0.90;0.50;;;;;;;29.03;29.40;100808.78;4982891;28;20951;-55
2022/08/08 11:34:49;;;;;;;0.50;0.33;;;;;;;28.76;29.66;100813.16;4981788;28;20470;-55
2022/08/08 11:37:41;;;;;;;0.50;0.40;;;;;;;29.06;29.55;100805.78;4983592;28;20446;-55
2022/08/08 11:40:28;;;;;;;5.07;0.60;;;;;;;29.26;28.81;100799.19;4983603;28;20460;-55
2022/08/08 11:42:59;;;;;;;0.70;0.40;;;;;;;29.06;29.34;100809.38;4981300;28;20819;-54
2022/08/08 11:45:26;;;;;;;1.77;0.40;;;;;;;28.94;29.07;100813.31;4990217;28;20493;-55
2022/08/08 11:47:56;;;;;;;1.10;0.50;;;;;;;29.18;29.21;100802.66;4991342;28;20549;-55
2022/08/08 11:50:32;;;;;;;0.50;0.40;;;;;;;29.24;28.71;100812.19;4998794;28;20531;-55
2022/08/08 11:53:01;;;;;;;2.13;0.97;;;;;;;29.25;28.95;100797.47;4989914;28;20828;-55
2022/08/08 11:55:34;;;;;;;4.00;0.63;;;;;;;29.45;28.72;100792.72;4987745;28;20923;-54
2022/08/08 11:58:04;;;;;;;2.00;0.53;;;;;;;29.40;28.59;100795.06;5004486;28;20503;-55
2022/08/08 12:00:50;;;;;;;0.60;0.40;;;;;;;29.05;28.65;100793.06;4981317;28;20555;-55
2022/08/08 12:03:18;;;;;;;0.50;0.30;;;;;;;29.43;28.80;100792.03;4984090;28;20463;-55
2022/08/08 12:05:47;;;;;;;0.50;0.33;;;;;;;29.21;28.81;100782.34;4987527;28;21024;-55
2022/08/08 12:08:14;;;;;;;0.60;0.50;;;;;;;29.90;28.03;100784.53;4985433;28;20457;-55
2022/08/08 12:10:49;;;;;;;0.60;0.37;;;;;;;29.25;28.48;100788.38;4980922;28;20450;-55
2022/08/08 12:13:24;;;;;;;0.50;0.30;;;;;;;29.24;28.94;100775.72;4982274;28;20481;-55
2022/08/08 12:16:15;;;;;;;0.60;0.50;;;;;;;29.78;28.26;100774.81;4985409;28;20428;-55
2022/08/08 12:18:46;;;;;;;0.50;0.30;;;;;;;29.61;28.44;100776.53;4981003;28;20445;-55
2022/08/08 12:21:30;;;;;;;0.73;0.63;;;;;;;29.33;28.32;100783.00;4983638;28;20501;-55
2022/08/08 12:24:19;;;;;;;0.50;0.40;;;;;;;29.24;28.32;100768.34;4984223;28;20477;-52
2022/08/08 12:26:53;;;;;;;1.27;0.63;;;;;;;29.67;29.17;100764.94;4980652;28;20493;-52
2022/08/08 12:29:33;;;;;;;0.70;0.40;;;;;;;29.84;28.48;100776.06;4983012;28;20882;-52
2022/08/08 12:32:13;;;;;;;0.90;0.70;;;;;;;29.59;29.00;100770.31;4981493;28;20884;-52
2022/08/08 12:34:55;;;;;;;0.70;0.47;;;;;;;29.68;28.68;100772.13;4980791;28;20497;-52
2022/08/08 12:37:34;;;;;;;0.70;0.40;;;;;;;29.44;27.67;100769.09;4983158;28;20478;-52